Time;durP1;ratioP1;P1;durP2;ratioP2;P2;SDS_P1;SDS_P2;PMS_P1;PMS_P2;Temp;Humidity;BMP_temperature;BMP_pressure;BME280_temperature;BME280_humidity;BME280_pressure;Samples;Min_cycle;Max_cycle;Signal;HPM_P1;HPM_P2
2022/10/31 00:01:54;;;;;;;11.02;7.45;;;17.00;99.90;;;;;;5053515;28;20465;-62
2022/10/31 00:04:20;;;;;;;10.50;7.05;;;16.90;99.90;;;;;;5053681;28;20032;-61
2022/10/31 00:06:45;;;;;;;10.98;7.40;;;17.00;99.90;;;;;;5053598;28;20024;-62
2022/10/31 00:09:11;;;;;;;11.15;7.25;;;16.90;99.90;;;;;;5053589;28;20086;-74
2022/10/31 00:11:37;;;;;;;11.65;8.02;;;16.90;99.90;;;;;;5053519;28;20154;-63
2022/10/31 00:14:03;;;;;;;14.63;7.82;;;16.90;99.90;;;;;;5053258;28;20025;-67
2022/10/31 00:16:29;;;;;;;9.73;7.32;;;16.90;99.90;;;;;;5053435;28;20021;-70
2022/10/31 00:18:57;;;;;;;9.73;7.38;;;16.90;99.90;;;;;;5053353;28;20419;-70
2022/10/31 00:21:24;;;;;;;12.15;8.20;;;16.80;99.90;;;;;;5053411;28;20025;-66
2022/10/31 00:23:49;;;;;;;14.10;7.95;;;16.80;99.90;;;;;;5053243;28;20465;-73
2022/10/31 00:26:15;;;;;;;15.23;8.27;;;16.80;99.90;;;;;;5053113;28;20048;-62
2022/10/31 00:28:41;;;;;;;10.90;8.32;;;16.80;99.90;;;;;;5053432;28;20496;-62
2022/10/31 00:31:09;;;;;;;8.98;7.80;;;16.80;99.90;;;;;;5053123;28;20525;-62
2022/10/31 00:33:37;;;;;;;11.05;7.75;;;16.70;99.90;;;;;;5053157;28;20028;-62
2022/10/31 00:36:04;;;;;;;11.50;8.65;;;16.70;99.90;;;;;;5052745;28;20539;-70
2022/10/31 00:38:30;;;;;;;13.70;8.25;;;16.70;99.90;;;;;;5053404;28;20471;-64
2022/10/31 00:40:56;;;;;;;12.70;9.45;;;16.70;99.90;;;;;;5052979;28;20528;-63
2022/10/31 00:43:21;;;;;;;16.75;8.52;;;16.70;99.90;;;;;;5053321;28;20100;-62
2022/10/31 00:45:47;;;;;;;11.57;8.93;;;16.70;99.90;;;;;;5052846;28;20112;-63
2022/10/31 00:48:13;;;;;;;15.07;9.32;;;16.60;99.90;;;;;;5052717;28;20482;-65
2022/10/31 00:50:39;;;;;;;14.98;9.07;;;16.70;99.90;;;;;;5052710;28;20051;-63
2022/10/31 00:53:05;;;;;;;14.32;9.75;;;16.70;99.90;;;;;;5051801;28;20039;-62
2022/10/31 00:55:30;;;;;;;12.48;9.30;;;16.60;99.90;;;;;;5052772;28;20409;-63
2022/10/31 00:57:56;;;;;;;14.55;9.70;;;16.60;99.90;;;;;;5053025;28;20100;-61
2022/10/31 01:00:22;;;;;;;13.52;9.38;;;16.60;99.90;;;;;;5052905;28;20063;-64
2022/10/31 01:02:48;;;;;;;14.60;9.90;;;16.60;99.90;;;;;;5052736;28;20474;-66
2022/10/31 01:05:13;;;;;;;15.70;9.85;;;16.60;99.90;;;;;;5052459;28;20021;-67
2022/10/31 01:07:40;;;;;;;14.25;9.63;;;16.50;99.90;;;;;;5052877;28;20025;-66
2022/10/31 01:10:07;;;;;;;14.10;9.10;;;16.50;99.90;;;;;;5052579;28;20037;-62
2022/10/31 01:12:51;;;;;;;17.63;9.30;;;16.50;99.90;;;;;;5052937;28;20025;-63
2022/10/31 01:15:21;;;;;;;14.90;9.43;;;16.50;99.90;;;;;;5052625;28;20017;-61
2022/10/31 01:17:47;;;;;;;12.70;8.65;;;16.50;99.90;;;;;;5052491;28;20075;-63
2022/10/31 01:20:14;;;;;;;13.38;9.20;;;16.40;99.90;;;;;;5052335;28;20017;-62
2022/10/31 01:22:40;;;;;;;17.92;10.15;;;16.40;99.90;;;;;;5052729;28;20021;-66
2022/10/31 01:25:07;;;;;;;18.83;10.32;;;16.40;99.90;;;;;;5054379;28;20500;-66
2022/10/31 01:27:33;;;;;;;14.00;9.68;;;16.40;99.90;;;;;;5056705;28;20489;-63
2022/10/31 01:29:59;;;;;;;14.38;10.02;;;16.40;99.90;;;;;;5056436;28;20037;-65
2022/10/31 01:32:24;;;;;;;14.07;10.00;;;16.40;99.90;;;;;;5056345;28;20040;-63
2022/10/31 01:34:50;;;;;;;12.85;9.95;;;16.40;99.90;;;;;;5056165;28;20620;-62
2022/10/31 01:37:16;;;;;;;14.00;9.13;;;16.40;99.90;;;;;;5056414;28;20046;-66
2022/10/31 01:39:41;;;;;;;12.90;9.52;;;16.30;99.90;;;;;;5056752;28;20070;-63
2022/10/31 01:42:17;;;;;;;13.50;9.68;;;16.30;99.90;;;;;;5056239;28;20100;-62
2022/10/31 01:44:42;;;;;;;13.07;9.40;;;16.30;99.90;;;;;;5056399;28;20021;-63
2022/10/31 01:47:15;;;;;;;12.52;9.73;;;16.30;99.90;;;;;;5055027;28;20032;-68
2022/10/31 01:49:45;;;;;;;;;;;16.30;99.90;;;;;;5055719;28;20124;-62
2022/10/31 01:52:20;;;;;;;12.27;9.05;;;16.30;99.90;;;;;;5056181;28;19911;-69
2022/10/31 01:55:11;;;;;;;10.70;8.25;;;16.30;99.90;;;;;;5056191;28;20486;-62
2022/10/31 01:57:41;;;;;;;13.15;9.07;;;16.20;99.90;;;;;;5055991;28;20162;-65
2022/10/31 02:00:09;;;;;;;12.40;8.50;;;16.20;99.90;;;;;;5056089;28;20112;-65
2022/10/31 02:02:35;;;;;;;13.25;8.40;;;16.20;99.90;;;;;;5056087;28;20021;-62
2022/10/31 02:05:06;;;;;;;12.30;8.95;;;16.20;99.90;;;;;;5055511;28;20452;-63
2022/10/31 02:07:39;;;;;;;14.15;9.15;;;16.20;99.90;;;;;;5055891;28;20028;-62
2022/10/31 02:10:05;;;;;;;13.95;8.82;;;16.20;99.90;;;;;;5055598;28;20121;-72
2022/10/31 02:12:32;;;;;;;14.90;8.60;;;16.10;99.90;;;;;;5055833;28;20072;-64
2022/10/31 02:14:59;;;;;;;13.27;9.95;;;16.10;99.90;;;;;;5056028;28;20025;-62
2022/10/31 02:17:25;;;;;;;14.13;9.45;;;16.10;99.90;;;;;;5055425;28;20075;-70
2022/10/31 02:20:09;;;;;;;13.32;9.38;;;16.10;99.90;;;;;;5055558;28;20028;-64
2022/10/31 02:23:25;;;;;;;12.65;9.23;;;16.10;99.90;;;;;;5055784;28;20100;-62
2022/10/31 02:26:17;;;;;;;15.13;8.65;;;16.10;99.90;;;;;;5055485;28;20481;-62
2022/10/31 02:29:10;;;;;;;12.77;9.83;;;16.00;99.90;;;;;;5055630;28;20037;-67
2022/10/31 02:31:57;;;;;;;14.90;8.75;;;16.00;99.90;;;;;;5055468;28;20074;-65
2022/10/31 02:34:57;;;;;;;14.00;9.60;;;16.00;99.90;;;;;;5054898;28;20044;-62
2022/10/31 02:37:39;;;;;;;11.95;9.07;;;16.00;99.90;;;;;;5052862;28;20531;-62
2022/10/31 02:40:16;;;;;;;13.77;9.23;;;16.00;99.90;;;;;;5055478;28;20478;-73
2022/10/31 02:42:53;;;;;;;13.70;9.30;;;15.90;99.90;;;;;;5055211;28;20025;-64
2022/10/31 02:45:21;;;;;;;14.25;9.35;;;15.90;99.90;;;;;;5055255;28;20047;-74
2022/10/31 02:47:50;;;;;;;10.88;8.80;;;15.90;99.90;;;;;;5054457;28;20087;-73
2022/10/31 02:50:45;;;;;;;12.73;9.23;;;15.90;99.90;;;;;;5054910;28;20124;-74
2022/10/31 02:53:15;;;;;;;13.48;9.20;;;15.90;99.90;;;;;;5055196;28;20489;-68
2022/10/31 02:55:48;;;;;;;15.85;9.18;;;15.90;99.90;;;;;;5053943;28;20052;-62
2022/10/31 02:58:19;;;;;;;14.93;8.65;;;15.80;99.90;;;;;;5054914;28;20021;-68
2022/10/31 03:00:59;;;;;;;15.43;8.48;;;15.80;99.90;;;;;;5054481;28;20119;-63
2022/10/31 03:03:47;;;;;;;14.45;9.43;;;15.80;99.90;;;;;;5053724;28;20036;-63
2022/10/31 03:06:20;;;;;;;17.35;9.45;;;15.80;99.90;;;;;;5055231;28;20057;-69
2022/10/31 03:08:55;;;;;;;14.00;10.63;;;15.80;99.90;;;;;;5054507;28;20048;-69
2022/10/31 03:11:28;;;;;;;12.15;8.82;;;15.70;99.90;;;;;;5053742;28;20029;-61
2022/10/31 03:14:04;;;;;;;13.43;9.70;;;15.70;99.90;;;;;;5054394;28;20103;-62
2022/10/31 03:16:39;;;;;;;10.90;9.35;;;15.70;99.90;;;;;;5053611;28;20049;-68
2022/10/31 03:19:11;;;;;;;12.93;8.80;;;15.70;99.90;;;;;;5054119;28;20035;-64
2022/10/31 03:21:44;;;;;;;13.80;9.57;;;15.70;99.90;;;;;;5054346;28;20560;-63
2022/10/31 03:24:12;;;;;;;12.40;8.88;;;15.70;99.90;;;;;;5054373;28;20032;-68
2022/10/31 03:26:42;;;;;;;13.90;9.80;;;15.70;99.90;;;;;;5053966;28;20033;-66
2022/10/31 03:29:10;;;;;;;15.88;9.40;;;15.70;99.90;;;;;;5054024;28;20044;-69
2022/10/31 03:31:46;;;;;;;13.13;9.65;;;15.60;99.90;;;;;;5052993;28;20017;-69
2022/10/31 03:34:13;;;;;;;12.43;9.52;;;15.70;99.90;;;;;;5054369;28;20211;-73
2022/10/31 03:36:41;;;;;;;11.30;9.02;;;15.60;99.90;;;;;;5054306;28;20024;-61
2022/10/31 03:39:11;;;;;;;14.05;8.95;;;15.60;99.90;;;;;;5052857;28;20052;-65
2022/10/31 03:41:42;;;;;;;11.27;9.35;;;15.60;99.90;;;;;;5054172;28;20481;-62
2022/10/31 03:44:12;;;;;;;13.83;10.43;;;15.60;99.90;;;;;;5053369;28;20064;-62
2022/10/31 03:46:39;;;;;;;17.98;10.88;;;15.50;99.90;;;;;;5033847;28;20064;-67
2022/10/31 03:49:04;;;;;;;13.82;9.80;;;15.50;99.90;;;;;;5033853;28;20041;-63
2022/10/31 03:51:39;;;;;;;16.05;10.13;;;15.50;99.90;;;;;;5034142;28;20017;-67
2022/10/31 03:54:23;;;;;;;14.18;10.23;;;15.50;99.90;;;;;;5033916;28;20037;-65
2022/10/31 03:56:57;;;;;;;13.50;9.77;;;15.50;99.90;;;;;;5032625;28;20470;-74
2022/10/31 03:59:44;;;;;;;12.88;9.75;;;15.50;99.90;;;;;;5051088;28;20032;-64
2022/10/31 04:02:20;;;;;;;15.18;9.60;;;15.50;99.90;;;;;;5053868;28;20029;-62
2022/10/31 04:04:47;;;;;;;12.32;9.90;;;15.40;99.90;;;;;;5053716;28;20049;-62
2022/10/31 04:07:14;;;;;;;14.55;10.63;;;15.50;99.90;;;;;;5053261;28;20031;-72
2022/10/31 04:09:44;;;;;;;12.43;9.32;;;15.40;99.90;;;;;;5052986;28;20029;-64
2022/10/31 04:12:14;;;;;;;14.68;10.70;;;15.50;99.90;;;;;;5053664;28;20056;-69
2022/10/31 04:14:42;;;;;;;13.38;9.90;;;15.40;99.90;;;;;;5053010;28;20042;-63
2022/10/31 04:17:14;;;;;;;13.65;9.60;;;15.40;99.90;;;;;;5053472;28;20036;-66
2022/10/31 04:19:40;;;;;;;12.15;9.75;;;15.40;99.90;;;;;;5053538;28;20044;-70
2022/10/31 04:22:05;;;;;;;16.88;10.32;;;15.40;99.90;;;;;;5053582;28;20394;-69
2022/10/31 04:24:31;;;;;;;10.68;9.55;;;15.40;99.90;;;;;;5052846;28;20033;-74
2022/10/31 04:26:56;;;;;;;16.10;10.18;;;15.40;99.90;;;;;;5053249;28;20071;-72
2022/10/31 04:29:22;;;;;;;11.88;9.68;;;15.30;99.90;;;;;;5052967;28;20171;-74
2022/10/31 04:31:47;;;;;;;11.93;9.57;;;15.30;99.90;;;;;;5053362;28;20100;-63
2022/10/31 04:34:13;;;;;;;13.07;9.35;;;15.30;99.90;;;;;;5053238;28;20112;-69
2022/10/31 04:36:39;;;;;;;13.48;9.25;;;15.30;99.90;;;;;;5053250;28;20017;-67
2022/10/31 04:39:04;;;;;;;14.98;8.80;;;15.30;99.90;;;;;;5052922;28;20382;-65
2022/10/31 04:41:30;;;;;;;15.38;9.15;;;15.30;99.90;;;;;;5053165;28;20021;-74
2022/10/31 04:43:55;;;;;;;13.80;10.07;;;15.30;99.90;;;;;;5051613;28;20025;-66
2022/10/31 04:46:21;;;;;;;11.82;9.45;;;15.20;99.90;;;;;;5052877;28;20488;-70
2022/10/31 04:48:46;;;;;;;12.00;9.07;;;15.20;99.90;;;;;;5052969;28;20086;-70
2022/10/31 04:51:12;;;;;;;12.73;8.75;;;15.20;99.90;;;;;;5045997;28;20025;-73
2022/10/31 04:53:38;;;;;;;11.60;9.32;;;15.20;99.90;;;;;;5038405;28;20102;-66
2022/10/31 04:56:03;;;;;;;15.95;9.80;;;15.20;99.90;;;;;;5051829;28;20083;-62
2022/10/31 04:58:29;;;;;;;11.55;9.23;;;15.20;99.90;;;;;;5051689;28;20029;-67
2022/10/31 05:00:55;;;;;;;15.38;10.35;;;15.20;99.90;;;;;;5052277;28;20029;-68
2022/10/31 05:03:21;;;;;;;14.00;9.93;;;15.10;99.90;;;;;;5053065;28;20446;-66
2022/10/31 05:05:47;;;;;;;11.70;9.55;;;15.20;99.90;;;;;;5052700;28;20481;-63
2022/10/31 05:08:14;;;;;;;11.05;9.82;;;15.10;99.90;;;;;;5052654;28;20029;-61
2022/10/31 05:10:40;;;;;;;12.38;10.07;;;15.10;99.90;;;;;;5052448;28;20032;-65
2022/10/31 05:13:06;;;;;;;11.98;8.70;;;15.10;99.90;;;;;;5052526;28;20029;-63
2022/10/31 05:15:31;;;;;;;15.27;10.75;;;15.10;99.90;;;;;;5052665;28;20487;-62
2022/10/31 05:17:57;;;;;;;12.52;10.00;;;15.10;99.90;;;;;;5052857;28;20021;-63
2022/10/31 05:20:26;;;;;;;12.52;9.75;;;15.00;99.90;;;;;;5052617;28;20029;-64
2022/10/31 05:22:53;;;;;;;10.35;9.35;;;15.00;99.90;;;;;;5052480;28;20025;-66
2022/10/31 05:25:21;;;;;;;14.27;9.75;;;15.00;99.90;;;;;;5052334;28;20060;-72
2022/10/31 05:27:49;;;;;;;13.23;10.77;;;15.00;99.90;;;;;;5050962;28;20025;-72
2022/10/31 05:30:18;;;;;;;15.88;9.95;;;15.00;99.90;;;;;;5052467;28;20083;-72
2022/10/31 05:32:47;;;;;;;13.05;8.80;;;15.00;99.90;;;;;;5052645;28;20104;-71
2022/10/31 05:35:17;;;;;;;10.80;8.98;;;14.90;99.90;;;;;;5052516;28;20064;-73
2022/10/31 05:37:43;;;;;;;13.63;10.93;;;14.90;99.90;;;;;;5052308;28;20021;-69
2022/10/31 05:40:11;;;;;;;16.90;13.43;;;14.90;99.90;;;;;;5052432;28;20090;-67
2022/10/31 05:42:39;;;;;;;16.70;11.77;;;14.90;99.90;;;;;;5052463;28;20048;-61
2022/10/31 05:45:08;;;;;;;14.65;13.10;;;14.90;99.90;;;;;;5051212;28;20396;-67
2022/10/31 05:47:33;;;;;;;16.60;12.50;;;14.90;99.90;;;;;;5052221;28;20017;-69
2022/10/31 05:49:59;;;;;;;15.68;12.45;;;14.80;99.90;;;;;;5052424;28;20031;-68
2022/10/31 05:52:24;;;;;;;15.63;10.70;;;14.90;99.90;;;;;;5048197;28;20095;-64
2022/10/31 05:54:50;;;;;;;16.80;10.98;;;14.80;99.90;;;;;;5047404;28;20029;-62
2022/10/31 05:57:16;;;;;;;15.00;10.13;;;14.80;99.90;;;;;;5044401;28;20029;-62
2022/10/31 05:59:41;;;;;;;14.13;10.30;;;14.90;99.90;;;;;;5050959;28;20036;-67
2022/10/31 06:02:07;;;;;;;18.13;10.32;;;14.90;99.90;;;;;;5043150;28;20029;-62
2022/10/31 06:04:32;;;;;;;17.10;10.57;;;14.90;99.90;;;;;;5049910;28;20037;-62
2022/10/31 06:06:58;;;;;;;15.27;11.15;;;14.90;99.90;;;;;;5049046;28;20131;-61
2022/10/31 06:09:23;;;;;;;15.70;10.23;;;14.90;99.90;;;;;;5043899;28;20029;-61
2022/10/31 06:11:49;;;;;;;14.00;11.27;;;14.90;99.90;;;;;;5039026;28;20036;-62
2022/10/31 06:14:15;;;;;;;15.90;12.00;;;14.90;99.90;;;;;;5035875;28;20064;-64
2022/10/31 06:16:40;;;;;;;16.52;11.98;;;14.90;99.90;;;;;;5035824;28;20108;-62
2022/10/31 06:19:06;;;;;;;15.90;11.93;;;14.90;99.90;;;;;;5036042;28;20029;-62
2022/10/31 06:21:31;;;;;;;17.23;11.50;;;14.90;99.90;;;;;;5034449;28;20126;-66
2022/10/31 06:23:57;;;;;;;15.65;12.10;;;14.90;99.90;;;;;;5050087;28;20040;-62
2022/10/31 06:26:23;;;;;;;13.32;11.65;;;14.90;99.90;;;;;;5053387;28;20033;-63
2022/10/31 06:28:48;;;;;;;14.30;11.35;;;14.80;99.90;;;;;;5055401;28;20043;-62
2022/10/31 06:31:14;;;;;;;20.48;17.77;;;14.80;99.90;;;;;;5055516;28;20029;-63
2022/10/31 06:33:41;;;;;;;31.75;22.08;;;14.80;99.90;;;;;;5055591;28;20051;-63
2022/10/31 06:36:07;;;;;;;28.90;21.67;;;14.80;99.90;;;;;;5055330;28;20055;-63
2022/10/31 06:38:33;;;;;;;24.05;19.15;;;14.80;99.90;;;;;;5055069;28;20025;-62
2022/10/31 06:41:05;;;;;;;16.52;13.68;;;14.80;99.90;;;;;;5055147;28;20029;-62
2022/10/31 06:43:31;;;;;;;;;;;14.80;99.90;;;;;;5055587;28;20023;-61
2022/10/31 06:45:57;;;;;;;15.02;12.40;;;14.80;99.90;;;;;;5054184;28;19995;-64
2022/10/31 06:48:23;;;;;;;16.33;12.13;;;14.80;99.90;;;;;;5055015;28;20032;-62
2022/10/31 06:50:49;;;;;;;17.30;12.43;;;14.80;99.90;;;;;;5055291;28;20021;-64
2022/10/31 06:53:15;;;;;;;17.15;11.68;;;14.80;99.90;;;;;;5054786;28;20033;-64
2022/10/31 06:55:41;;;;;;;16.20;11.85;;;14.80;99.90;;;;;;5054499;28;20052;-62
2022/10/31 06:58:08;;;;;;;16.30;11.57;;;14.80;99.90;;;;;;5055000;28;20036;-75
2022/10/31 07:00:34;;;;;;;19.20;12.13;;;14.80;99.90;;;;;;5054787;28;20020;-69
2022/10/31 07:03:02;;;;;;;20.25;11.63;;;14.80;99.90;;;;;;5054862;28;20462;-64
2022/10/31 07:05:29;;;;;;;14.68;11.35;;;14.80;99.90;;;;;;5055078;28;20021;-62
2022/10/31 07:07:56;;;;;;;17.65;13.95;;;14.80;99.90;;;;;;5054584;28;20112;-62
2022/10/31 07:10:23;;;;;;;19.10;13.77;;;14.80;99.90;;;;;;5054217;28;20088;-61
2022/10/31 07:12:57;;;;;;;17.33;12.38;;;14.80;99.90;;;;;;5054401;28;20033;-62
2022/10/31 07:15:27;;;;;;;12.25;10.48;;;14.80;99.90;;;;;;5054830;28;20029;-61
2022/10/31 07:17:53;;;;;;;14.35;9.77;;;14.80;99.90;;;;;;5054658;28;20094;-71
2022/10/31 07:20:19;;;;;;;15.57;11.43;;;14.80;99.90;;;;;;5054652;28;20522;-62
2022/10/31 07:22:45;;;;;;;13.85;11.43;;;14.80;99.90;;;;;;5053166;28;20478;-65
2022/10/31 07:25:11;;;;;;;13.77;10.25;;;14.80;99.90;;;;;;5054343;28;20083;-62
2022/10/31 07:27:38;;;;;;;13.90;10.75;;;14.80;99.90;;;;;;5054272;28;20057;-66
2022/10/31 07:30:05;;;;;;;15.38;11.07;;;14.80;99.90;;;;;;5054378;28;20037;-68
2022/10/31 07:32:47;;;;;;;14.93;10.18;;;14.80;99.90;;;;;;5054551;28;20031;-61
2022/10/31 07:35:16;;;;;;;15.13;10.65;;;14.90;99.90;;;;;;5053232;28;20033;-61
2022/10/31 07:37:41;;;;;;;13.40;10.02;;;14.80;99.90;;;;;;5052725;28;20025;-62
2022/10/31 07:40:08;;;;;;;17.45;10.63;;;14.80;99.90;;;;;;5053036;28;20107;-65
2022/10/31 07:42:42;;;;;;;14.82;11.45;;;14.90;99.90;;;;;;5053815;28;20035;-62
2022/10/31 07:45:10;;;;;;;15.35;10.13;;;14.90;99.90;;;;;;5054060;28;20029;-62
2022/10/31 07:47:50;;;;;;;14.63;9.98;;;14.90;99.90;;;;;;5054110;28;20086;-67
2022/10/31 07:50:18;;;;;;;15.02;10.20;;;14.90;99.90;;;;;;5054038;28;20032;-62
2022/10/31 07:52:44;;;;;;;14.95;10.27;;;14.80;99.90;;;;;;5053703;28;20107;-62
2022/10/31 07:55:10;;;;;;;12.20;10.85;;;14.90;99.90;;;;;;5053968;28;20060;-61
2022/10/31 07:57:38;;;;;;;14.88;10.48;;;14.90;99.90;;;;;;5053765;28;20062;-67
2022/10/31 08:00:06;;;;;;;15.13;10.70;;;14.90;99.90;;;;;;5053760;28;20025;-69
2022/10/31 08:02:32;;;;;;;14.77;10.18;;;14.90;99.90;;;;;;5053189;28;20076;-63
2022/10/31 08:04:59;;;;;;;15.23;9.75;;;14.90;99.90;;;;;;5053560;28;20100;-63
2022/10/31 08:07:26;;;;;;;14.88;11.00;;;14.90;99.90;;;;;;5053656;28;20116;-62
2022/10/31 08:09:51;;;;;;;16.65;11.20;;;14.90;99.90;;;;;;5053396;28;20040;-62
2022/10/31 08:12:17;;;;;;;14.10;10.27;;;14.90;99.90;;;;;;5053480;28;20029;-61
2022/10/31 08:14:44;;;;;;;17.55;11.98;;;15.00;99.90;;;;;;5053265;28;20037;-64
2022/10/31 08:17:10;;;;;;;19.60;12.65;;;15.00;99.90;;;;;;5053583;28;20462;-66
2022/10/31 08:19:35;;;;;;;15.65;11.90;;;15.00;99.90;;;;;;5047703;28;20029;-62
2022/10/31 08:22:01;;;;;;;16.27;11.55;;;15.00;99.90;;;;;;5050183;28;20029;-71
2022/10/31 08:24:26;;;;;;;16.83;11.95;;;15.00;99.90;;;;;;5055143;28;20044;-64
2022/10/31 08:26:52;;;;;;;19.25;12.43;;;15.00;99.90;;;;;;5058427;28;20041;-67
2022/10/31 08:29:17;;;;;;;14.43;12.43;;;15.00;99.90;;;;;;5062767;28;20162;-63
2022/10/31 08:31:43;;;;;;;19.20;12.15;;;15.00;99.90;;;;;;5059522;28;20048;-61
2022/10/31 08:34:09;;;;;;;15.43;12.10;;;15.00;99.90;;;;;;5055934;28;20107;-67
2022/10/31 08:36:34;;;;;;;17.02;11.27;;;15.00;99.90;;;;;;5055929;28;20094;-69
2022/10/31 08:39:00;;;;;;;18.23;12.30;;;15.00;99.90;;;;;;5060978;28;20028;-69
2022/10/31 08:41:26;;;;;;;19.30;12.73;;;15.00;99.90;;;;;;5051950;28;20025;-67
2022/10/31 08:43:52;;;;;;;17.30;12.27;;;15.10;99.90;;;;;;5049001;28;20543;-62
2022/10/31 08:46:17;;;;;;;22.35;13.07;;;15.10;99.90;;;;;;5057167;28;20020;-66
2022/10/31 08:48:43;;;;;;;21.90;13.45;;;15.10;99.90;;;;;;5052751;28;20025;-74
2022/10/31 08:51:09;;;;;;;19.00;12.95;;;15.10;99.90;;;;;;5059526;28;20052;-75
2022/10/31 08:53:35;;;;;;;16.38;13.10;;;15.10;99.90;;;;;;5044261;28;20040;-76
2022/10/31 08:56:00;;;;;;;18.83;13.63;;;15.10;99.90;;;;;;5042728;28;20090;-62
2022/10/31 08:58:26;;;;;;;19.70;13.25;;;15.10;99.90;;;;;;5051065;28;20092;-75
2022/10/31 09:00:54;;;;;;;19.00;13.43;;;15.10;99.90;;;;;;5050133;28;20111;-76
2022/10/31 09:03:22;;;;;;;19.27;13.23;;;15.10;99.90;;;;;;5045319;28;20029;-71
2022/10/31 09:05:48;;;;;;;18.88;14.00;;;15.10;99.90;;;;;;5034817;28;20049;-72
2022/10/31 09:08:15;;;;;;;20.90;15.00;;;15.20;99.90;;;;;;5041518;28;20037;-76
2022/10/31 09:10:40;;;;;;;20.58;15.65;;;15.20;99.90;;;;;;5048791;28;20052;-63
2022/10/31 09:13:11;;;;;;;24.80;16.98;;;15.20;99.90;;;;;;5038788;28;20033;-78
2022/10/31 09:15:40;;;;;;;20.75;15.45;;;15.20;99.90;;;;;;5044082;28;20026;-68
2022/10/31 09:18:07;;;;;;;23.92;16.10;;;15.20;99.90;;;;;;5053303;28;20060;-79
2022/10/31 09:20:34;;;;;;;20.85;15.50;;;15.20;99.90;;;;;;5049184;28;20108;-77
2022/10/31 09:23:03;;;;;;;27.48;15.60;;;15.20;99.90;;;;;;5041170;28;20040;-75
2022/10/31 09:25:28;;;;;;;18.60;14.30;;;15.20;99.90;;;;;;5039242;28;20124;-79
2022/10/31 09:27:58;;;;;;;20.27;15.00;;;15.30;99.90;;;;;;5041764;28;20116;-69
2022/10/31 09:30:24;;;;;;;17.00;15.10;;;15.30;99.90;;;;;;5041086;28;20052;-76
2022/10/31 09:32:59;;;;;;;23.40;15.45;;;15.30;99.90;;;;;;5061969;28;20028;-73
2022/10/31 09:35:25;;;;;;;20.63;14.80;;;15.30;99.90;;;;;;5045004;28;20045;-78
2022/10/31 09:37:55;;;;;;;21.88;13.98;;;15.30;99.90;;;;;;5047143;28;20024;-62
2022/10/31 09:40:21;;;;;;;18.45;14.80;;;15.30;99.90;;;;;;5041794;28;20029;-62
2022/10/31 09:43:02;;;;;;;19.75;15.45;;;15.30;99.90;;;;;;5049086;28;20025;-77
2022/10/31 09:45:53;;;;;;;17.53;14.30;;;15.40;99.90;;;;;;5049923;28;20024;-77
2022/10/31 09:48:45;;;;;;;18.38;13.10;;;15.40;99.90;;;;;;5048111;28;20047;-78
2022/10/31 09:51:17;;;;;;;16.20;14.02;;;15.40;99.90;;;;;;5055209;28;20037;-76
2022/10/31 09:54:10;;;;;;;19.45;13.93;;;15.40;99.90;;;;;;5052043;28;20025;-66
2022/10/31 09:56:37;;;;;;;17.35;13.75;;;15.40;99.90;;;;;;5051656;28;20456;-67
2022/10/31 09:59:10;;;;;;;18.35;14.30;;;15.40;99.90;;;;;;5066172;28;20044;-64
2022/10/31 10:01:54;;;;;;;16.83;13.70;;;15.40;99.90;;;;;;5045573;28;20505;-64
2022/10/31 10:04:41;;;;;;;18.45;13.63;;;15.50;99.90;;;;;;5050572;28;20026;-67
2022/10/31 10:07:15;;;;;;;14.70;11.05;;;15.50;99.90;;;;;;5053269;28;20035;-64
2022/10/31 10:09:41;;;;;;;17.90;13.38;;;15.50;99.90;;;;;;5051342;28;20505;-75
2022/10/31 10:12:18;;;;;;;21.85;12.57;;;15.60;99.90;;;;;;5059121;28;20103;-65
2022/10/31 10:15:30;;;;;;;18.10;13.52;;;15.60;99.90;;;;;;5055649;28;20398;-70
2022/10/31 10:18:14;;;;;;;22.45;14.70;;;15.60;99.90;;;;;;5044634;28;20130;-72
2022/10/31 10:21:01;;;;;;;18.95;13.43;;;15.50;99.90;;;;;;5052466;28;20090;-74
2022/10/31 10:24:09;;;;;;;17.70;14.15;;;15.60;99.90;;;;;;5064014;28;20025;-78
2022/10/31 10:26:43;;;;;;;18.77;13.68;;;15.60;99.90;;;;;;5055995;28;20091;-76
2022/10/31 10:29:50;;;;;;;15.20;13.05;;;15.60;99.90;;;;;;5067088;28;20070;-78
2022/10/31 10:32:28;;;;;;;21.25;14.77;;;15.60;99.90;;;;;;5065098;28;20119;-77
2022/10/31 10:35:01;;;;;;;15.95;13.70;;;15.60;99.90;;;;;;5054209;28;20040;-78
2022/10/31 10:37:32;;;;;;;24.23;16.10;;;15.60;99.90;;;;;;5054649;28;20028;-78
2022/10/31 10:40:20;;;;;;;17.90;14.57;;;15.60;99.90;;;;;;5054417;28;20035;-68
2022/10/31 10:48:34;;;;;;;16.88;14.50;;;15.60;99.90;;;;;;5034603;28;19912;-73
2022/10/31 10:51:01;;;;;;;22.60;15.93;;;15.60;99.90;;;;;;5034410;28;20111;-78
2022/10/31 10:54:01;;;;;;;18.88;14.68;;;15.60;99.90;;;;;;5036338;28;20095;-77
2022/10/31 10:56:56;;;;;;;20.58;15.43;;;15.70;99.90;;;;;;5034127;28;20036;-77
2022/10/31 10:59:22;;;;;;;24.33;15.95;;;15.70;99.90;;;;;;5033886;28;20029;-77
2022/10/31 11:01:52;;;;;;;22.17;15.70;;;15.70;99.90;;;;;;5033820;28;20155;-78
2022/10/31 11:04:31;;;;;;;23.92;16.05;;;15.70;99.90;;;;;;5035185;28;20950;-79
2022/10/31 11:07:08;;;;;;;19.85;15.57;;;15.80;99.90;;;;;;5035094;28;20029;-77
2022/10/31 11:09:35;;;;;;;22.20;15.63;;;15.80;99.90;;;;;;5046121;28;20153;-73
2022/10/31 11:12:15;;;;;;;19.63;14.88;;;15.80;99.90;;;;;;5054392;28;20025;-78
2022/10/31 11:14:53;;;;;;;17.42;14.50;;;15.80;99.90;;;;;;5054444;28;20064;-77
2022/10/31 11:17:38;;;;;;;21.10;14.80;;;15.90;99.90;;;;;;5054356;28;20047;-79
2022/10/31 11:20:35;;;;;;;22.40;15.50;;;15.90;99.90;;;;;;5054442;28;20032;-78
2022/10/31 11:23:16;;;;;;;21.52;15.27;;;15.90;99.90;;;;;;5054830;28;20142;-79
2022/10/31 11:26:20;;;;;;;18.63;14.52;;;15.90;99.90;;;;;;5054190;28;20486;-76
2022/10/31 11:28:59;;;;;;;19.80;15.23;;;16.00;99.90;;;;;;5054267;28;20063;-77
2022/10/31 11:31:26;;;;;;;18.67;14.38;;;15.90;99.90;;;;;;5054530;28;20078;-78
2022/10/31 11:34:05;;;;;;;22.75;16.25;;;16.00;99.90;;;;;;5054420;28;20095;-79
2022/10/31 11:36:32;;;;;;;21.40;15.93;;;16.00;99.90;;;;;;5034604;28;20057;-78
2022/10/31 11:39:01;;;;;;;19.73;15.70;;;16.00;99.90;;;;;;5034299;28;20084;-78
2022/10/31 11:41:32;;;;;;;20.83;16.60;;;16.00;99.90;;;;;;5034395;28;20029;-76
2022/10/31 11:44:11;;;;;;;23.48;17.25;;;16.00;99.90;;;;;;5034089;28;20109;-79
2022/10/31 11:46:44;;;;;;;21.08;16.63;;;16.10;99.90;;;;;;5034187;28;20044;-78
2022/10/31 11:49:38;;;;;;;24.17;18.00;;;16.10;99.90;;;;;;5044525;28;20439;-78
2022/10/31 11:52:31;;;;;;;25.23;17.75;;;16.10;99.90;;;;;;5052929;28;20033;-77
2022/10/31 11:55:12;;;;;;;23.17;16.75;;;16.10;99.90;;;;;;5053962;28;20021;-78
2022/10/31 11:57:47;;;;;;;22.65;18.17;;;16.20;99.90;;;;;;5053856;28;20547;-78
2022/10/31 12:00:21;;;;;;;20.40;18.20;;;16.10;99.90;;;;;;5053758;28;20075;-78
2022/10/31 12:02:46;;;;;;;25.52;17.10;;;16.20;99.90;;;;;;5053886;28;20044;-78
2022/10/31 12:05:24;;;;;;;21.42;17.95;;;16.20;99.90;;;;;;5053314;28;20502;-78
2022/10/31 12:07:51;;;;;;;25.20;19.67;;;16.20;99.90;;;;;;5053280;28;20025;-78
2022/10/31 12:10:24;;;;;;;24.80;19.88;;;16.20;99.90;;;;;;5053559;28;20033;-79
2022/10/31 12:13:17;;;;;;;23.25;19.08;;;16.20;99.90;;;;;;5053605;28;20025;-77
2022/10/31 12:16:02;;;;;;;25.83;18.65;;;16.30;99.90;;;;;;5053257;28;20490;-79
2022/10/31 12:18:41;;;;;;;24.65;18.40;;;16.30;99.90;;;;;;5053294;28;20025;-67
2022/10/31 12:21:12;;;;;;;24.02;18.67;;;16.30;99.90;;;;;;5053212;28;20052;-64
2022/10/31 12:24:03;;;;;;;30.77;20.08;;;16.30;99.90;;;;;;5053639;28;20509;-67
2022/10/31 12:26:58;;;;;;;27.88;20.45;;;16.30;99.90;;;;;;5053141;28;20048;-74
2022/10/31 12:29:43;;;;;;;30.00;19.92;;;16.40;99.90;;;;;;5052446;28;20039;-69
2022/10/31 12:32:41;;;;;;;26.13;19.58;;;16.30;99.90;;;;;;5053189;28;20029;-67
2022/10/31 12:35:45;;;;;;;25.92;18.85;;;16.40;99.90;;;;;;5053212;28;20033;-69
2022/10/31 12:38:35;;;;;;;27.60;19.98;;;16.40;99.90;;;;;;5053252;28;20108;-71
2022/10/31 12:41:22;;;;;;;28.23;19.77;;;16.50;99.90;;;;;;5052829;28;20150;-74
2022/10/31 12:43:57;;;;;;;28.92;19.33;;;16.50;99.90;;;;;;5053176;28;20116;-72
2022/10/31 12:46:32;;;;;;;31.58;19.92;;;16.50;99.90;;;;;;5051675;28;20028;-74
2022/10/31 12:49:22;;;;;;;29.25;19.83;;;16.50;99.90;;;;;;5053028;28;20462;-75
2022/10/31 12:51:58;;;;;;;24.70;18.73;;;16.50;99.90;;;;;;5052967;28;20047;-75
2022/10/31 12:54:50;;;;;;;28.17;20.38;;;16.50;99.90;;;;;;5052956;28;20020;-71
2022/10/31 12:57:45;;;;;;;25.10;19.38;;;16.50;99.90;;;;;;5052448;28;20452;-73
2022/10/31 13:00:16;;;;;;;29.65;19.13;;;16.60;99.90;;;;;;5052990;28;20017;-75